Time;durP1;ratioP1;P1;durP2;ratioP2;P2;SDS_P1;SDS_P2;PMS_P1;PMS_P2;Temp;Humidity;BMP_temperature;BMP_pressure;BME280_temperature;BME280_humidity;BME280_pressure;Samples;Min_cycle;Max_cycle;Signal;HPM_P1;HPM_P2
2022/05/28 00:01:05;;;;;;;;;;;11.50;99.90;;;;;;5071780;28;19941;-69
2022/05/28 00:03:31;;;;;;;;;;;11.50;99.90;;;;;;5085190;28;20252;-70
2022/05/28 00:05:57;;;;;;;;;;;11.50;99.90;;;;;;5080017;28;19920;-69
2022/05/28 00:08:24;;;;;;;;;;;11.50;99.90;;;;;;5081603;28;20599;-68
2022/05/28 00:10:50;;;;;;;;;;;11.60;99.90;;;;;;5076966;28;19924;-68
2022/05/28 00:13:15;;;;;;;;;;;11.60;99.90;;;;;;5079717;28;19924;-67
2022/05/28 00:15:44;;;;;;;;;;;11.70;99.90;;;;;;5114414;27;20385;-70
2022/05/28 00:18:10;;;;;;;;;;;11.70;99.90;;;;;;5059372;28;20364;-74
2022/05/28 00:20:35;;;;;;;;;;;11.70;99.90;;;;;;5077363;28;19928;-71
2022/05/28 00:23:02;;;;;;;;;;;11.80;99.90;;;;;;5067428;28;21181;-71
2022/05/28 00:25:28;;;;;;;;;;;11.80;99.90;;;;;;5079872;28;19966;-69
2022/05/28 00:27:54;;;;;;;;;;;11.90;99.90;;;;;;5078856;28;19963;-70
2022/05/28 00:30:19;;;;;;;;;;;11.90;99.90;;;;;;5107171;27;20295;-69
2022/05/28 00:32:45;;;;;;;;;;;11.90;99.90;;;;;;5112018;27;19920;-67
2022/05/28 00:35:13;;;;;;;;;;;11.70;99.90;;;;;;5095382;28;20835;-71
2022/05/28 00:37:38;;;;;;;;;;;11.00;99.90;;;;;;5078859;28;20011;-69
2022/05/28 00:40:05;;;;;;;;;;;10.30;99.90;;;;;;5111060;27;20007;-71
2022/05/28 00:42:30;;;;;;;;;;;9.80;99.90;;;;;;5114901;27;19924;-73
2022/05/28 00:44:55;;;;;;;;;;;9.50;99.90;;;;;;5079982;28;19936;-72
2022/05/28 00:47:21;;;;;;;;;;;9.40;99.90;;;;;;5108411;27;19933;-68
2022/05/28 00:49:47;;;;;;;;;;;9.40;99.90;;;;;;5059826;28;20019;-70
2022/05/28 00:52:13;;;;;;;;;;;9.40;99.90;;;;;;5075287;28;19930;-73
2022/05/28 00:54:41;;;;;;;;;;;9.40;99.90;;;;;;5082579;28;19920;-69
2022/05/28 00:57:08;;;;;;;;;;;9.40;99.90;;;;;;5078612;28;19924;-69
2022/05/28 00:59:34;;;;;;;;;;;9.40;99.90;;;;;;5115515;27;20394;-74
2022/05/28 01:02:02;;;;;;;;;;;9.50;99.90;;;;;;5076997;28;19963;-72
2022/05/28 01:04:31;;;;;;;;;;;9.40;99.90;;;;;;5109075;27;20379;-70
2022/05/28 01:07:03;;;;;;;;;;;9.40;99.90;;;;;;5081919;28;19924;-70
2022/05/28 01:09:39;;;;;;;;;;;9.30;99.90;;;;;;5079606;28;20271;-72
2022/05/28 01:12:15;;;;;;;;;;;9.40;99.90;;;;;;5082018;28;19951;-73
2022/05/28 01:14:44;;;;;;;;;;;9.40;99.90;;;;;;5073827;28;20260;-71
2022/05/28 01:17:13;;;;;;;;;;;9.40;99.90;;;;;;5067009;28;19986;-71
2022/05/28 01:19:49;;;;;;;;;;;9.30;99.90;;;;;;5078950;28;20386;-71
2022/05/28 01:22:33;;;;;;;;;;;9.30;99.90;;;;;;5075516;28;19924;-71
2022/05/28 01:25:12;;;;;;;;;;;9.20;99.90;;;;;;5067276;28;20027;-70
2022/05/28 01:27:38;;;;;;;;;;;9.30;99.90;;;;;;5078122;28;19928;-70
2022/05/28 01:30:05;;;;;;;;;;;9.20;99.90;;;;;;5078371;28;19970;-73
2022/05/28 01:32:32;;;;;;;;;;;9.20;99.90;;;;;;5080994;28;19930;-72
2022/05/28 01:34:58;;;;;;;;;;;9.20;99.90;;;;;;5074276;28;19990;-73
2022/05/28 01:37:24;;;;;;;;;;;9.20;99.90;;;;;;5105066;27;20328;-72
2022/05/28 01:39:50;;;;;;;;;;;9.20;99.90;;;;;;5078414;28;20015;-71
2022/05/28 01:42:17;;;;;;;;;;;9.10;99.90;;;;;;5106828;27;20055;-73
2022/05/28 01:44:44;;;;;;;;;;;9.20;99.90;;;;;;5076543;28;20356;-71
2022/05/28 01:47:10;;;;;;;;;;;9.20;99.90;;;;;;5083098;28;20504;-71
2022/05/28 01:49:36;;;;;;;;;;;9.10;99.90;;;;;;5083077;28;19928;-73
2022/05/28 01:52:02;;;;;;;;;;;9.20;99.90;;;;;;5078946;28;20294;-71
2022/05/28 01:54:30;;;;;;;;;;;9.20;99.90;;;;;;5075712;28;20279;-69
2022/05/28 01:56:56;;;;;;;;;;;9.20;99.90;;;;;;5074387;28;19927;-72
2022/05/28 01:59:23;;;;;;;;;;;9.20;99.90;;;;;;5074714;28;20382;-70
2022/05/28 02:01:49;;;;;;;;;;;9.20;99.90;;;;;;5082964;28;20516;-70
2022/05/28 02:04:14;;;;;;;;;;;9.20;99.90;;;;;;5108720;27;20057;-72
2022/05/28 02:06:41;;;;;;;;;;;9.10;99.90;;;;;;5075209;28;19960;-72
2022/05/28 02:09:08;;;;;;;;;;;9.20;99.90;;;;;;5087260;28;19969;-72
2022/05/28 02:11:49;;;;;;;;;;;9.30;99.90;;;;;;5078118;28;20014;-68
2022/05/28 02:14:15;;;;;;;;;;;9.30;99.90;;;;;;5080207;28;20443;-75
2022/05/28 02:16:54;;;;;;;;;;;9.30;99.90;;;;;;5075084;28;19933;-71
2022/05/28 02:19:28;;;;;;;;;;;9.20;99.90;;;;;;5092829;28;20003;-70
2022/05/28 02:22:04;;;;;;;;;;;9.30;99.90;;;;;;5094000;28;20275;-70
2022/05/28 02:24:34;;;;;;;;;;;9.30;99.90;;;;;;5112287;27;19930;-73
2022/05/28 02:27:03;;;;;;;;;;;9.30;99.90;;;;;;5079760;28;20216;-68
2022/05/28 02:29:30;;;;;;;;;;;9.30;99.90;;;;;;5079830;28;19931;-71
2022/05/28 02:31:56;;;;;;;;;;;9.20;99.90;;;;;;5106734;28;19920;-71
2022/05/28 02:34:21;;;;;;;;;;;9.20;99.90;;;;;;5077425;28;20397;-70
2022/05/28 02:36:47;;;;;;;;;;;9.30;99.90;;;;;;5076273;28;20418;-69
2022/05/28 02:39:13;;;;;;;;;;;9.10;99.90;;;;;;5079683;28;19974;-69
2022/05/28 02:41:38;;;;;;;;;;;9.10;99.90;;;;;;5060369;28;19959;-72
2022/05/28 02:44:04;;;;;;;;;;;9.20;99.90;;;;;;5073380;28;19946;-68
2022/05/28 02:46:30;;;;;;;;;;;9.20;99.90;;;;;;5078914;28;19932;-68
2022/05/28 02:48:55;;;;;;;;;;;9.10;99.90;;;;;;5077082;28;19928;-70
2022/05/28 02:51:21;;;;;;;;;;;9.10;99.90;;;;;;5079330;28;19926;-68
2022/05/28 02:53:48;;;;;;;;;;;9.00;99.90;;;;;;5079360;28;19931;-69
2022/05/28 02:56:13;;;;;;;;;;;9.10;99.90;;;;;;5076372;28;20414;-68
2022/05/28 02:58:39;;;;;;;;;;;9.00;99.90;;;;;;5080394;28;20023;-67
2022/05/28 03:01:37;;;;;;;;;;;9.00;99.90;;;;;;5115185;27;19951;-66
2022/05/28 03:04:04;;;;;;;;;;;8.90;99.90;;;;;;5049300;28;20370;-67
2022/05/28 03:06:29;;;;;;;;;;;8.90;99.90;;;;;;5079303;28;19924;-67
2022/05/28 03:08:55;;;;;;;;;;;8.90;99.90;;;;;;5080378;28;19935;-70
2022/05/28 03:11:21;;;;;;;;;;;8.90;99.90;;;;;;5080248;28;19978;-68
2022/05/28 03:13:46;;;;;;;;;;;8.80;99.90;;;;;;5113971;27;19971;-67
2022/05/28 03:16:11;;;;;;;;;;;8.90;99.90;;;;;;5078301;28;19920;-67
2022/05/28 03:18:37;;;;;;;;;;;8.90;99.90;;;;;;5075969;28;19920;-68
2022/05/28 03:21:03;;;;;;;;;;;8.80;99.90;;;;;;5084232;28;19964;-68
2022/05/28 03:23:29;;;;;;;;;;;8.80;99.90;;;;;;5080571;28;19955;-68
2022/05/28 03:25:54;;;;;;;;;;;8.80;99.90;;;;;;5082954;28;19927;-66
2022/05/28 03:28:20;;;;;;;;;;;8.80;99.90;;;;;;5077543;28;20302;-68
2022/05/28 03:30:45;;;;;;;;;;;8.80;99.90;;;;;;5079710;28;19920;-66
2022/05/28 03:33:11;;;;;;;;;;;8.70;99.90;;;;;;5062989;28;20253;-67
2022/05/28 03:35:37;;;;;;;;;;;8.70;99.90;;;;;;5115015;27;20282;-67
2022/05/28 03:38:04;;;;;;;;;;;8.70;99.90;;;;;;5082644;28;20382;-68
2022/05/28 03:40:29;;;;;;;;;;;8.80;99.90;;;;;;5061697;28;20306;-67
2022/05/28 03:42:55;;;;;;;;;;;8.80;99.90;;;;;;5084794;28;19945;-67
2022/05/28 03:45:20;;;;;;;;;;;8.80;99.90;;;;;;5075821;28;20297;-66
2022/05/28 03:47:46;;;;;;;;;;;8.70;99.90;;;;;;5083164;28;20449;-66
2022/05/28 03:50:11;;;;;;;;;;;8.90;99.90;;;;;;5084513;28;20374;-66
2022/05/28 03:52:37;;;;;;;;;;;9.00;99.90;;;;;;5080037;28;19920;-67
2022/05/28 03:55:02;;;;;;;;;;;9.00;99.90;;;;;;5074989;28;19921;-66
2022/05/28 03:57:29;;;;;;;;;;;9.10;99.90;;;;;;5112959;27;20443;-68
2022/05/28 03:59:55;;;;;;;;;;;9.00;99.90;;;;;;5078431;28;19920;-67
2022/05/28 04:02:21;;;;;;;;;;;9.00;99.90;;;;;;5084386;28;19974;-66
2022/05/28 04:04:46;;;;;;;;;;;9.00;99.90;;;;;;5070836;28;19955;-66
2022/05/28 04:07:13;;;;;;;;;;;9.10;99.90;;;;;;5076640;28;19933;-66
2022/05/28 04:09:38;;;;;;;;;;;9.10;99.90;;;;;;5077947;28;19943;-68
2022/05/28 04:12:04;;;;;;;;;;;9.10;99.90;;;;;;5079231;28;19920;-67
2022/05/28 04:14:29;;;;;;;;;;;9.20;99.90;;;;;;5112472;27;20340;-67
2022/05/28 04:16:55;;;;;;;;;;;9.30;99.90;;;;;;5076878;28;20039;-66
2022/05/28 04:19:21;;;;;;;;;;;9.30;99.90;;;;;;5076971;28;20014;-68
2022/05/28 04:21:46;;;;;;;;;;;9.30;99.90;;;;;;5058149;28;19920;-68
2022/05/28 04:24:12;;;;;;;;;;;9.40;99.90;;;;;;5080375;28;19935;-66
2022/05/28 04:26:37;;;;;;;;;;;9.50;99.90;;;;;;5075797;28;19925;-66
2022/05/28 04:29:03;;;;;;;;;;;9.50;99.90;;;;;;5081006;28;20290;-68
2022/05/28 04:31:28;;;;;;;;;;;9.60;99.90;;;;;;5082153;28;19928;-67
2022/05/28 04:33:54;;;;;;;;;;;9.70;99.90;;;;;;5080178;28;20011;-67
2022/05/28 04:36:19;;;;;;;;;;;9.60;99.90;;;;;;5059574;28;19942;-65
2022/05/28 04:38:45;;;;;;;;;;;9.80;99.90;;;;;;5079429;28;19920;-70
2022/05/28 04:41:10;;;;;;;;;;;9.90;99.90;;;;;;5080305;28;19966;-66
2022/05/28 04:43:36;;;;;;;;;;;10.00;99.90;;;;;;5077735;28;19928;-71
2022/05/28 04:46:02;;;;;;;;;;;10.00;99.90;;;;;;5081511;28;20443;-68
2022/05/28 04:48:27;;;;;;;;;;;10.00;99.90;;;;;;5109041;27;20351;-68
2022/05/28 04:50:53;;;;;;;;;;;10.10;99.90;;;;;;5116158;27;19920;-69
2022/05/28 04:53:18;;;;;;;;;;;10.10;99.90;;;;;;5076337;28;19955;-70
2022/05/28 04:55:45;;;;;;;;;;;10.20;99.90;;;;;;5082836;28;19935;-68
2022/05/28 04:58:11;;;;;;;;;;;10.20;99.90;;;;;;5061908;28;20022;-70
2022/05/28 05:00:37;;;;;;;;;;;10.30;99.90;;;;;;5080323;28;19920;-73
2022/05/28 05:03:02;;;;;;;;;;;10.40;99.90;;;;;;5074734;28;19920;-69
2022/05/28 05:05:27;;;;;;;;;;;10.40;99.90;;;;;;5073223;28;20355;-70
2022/05/28 05:07:53;;;;;;;;;;;10.50;99.90;;;;;;5077149;28;19935;-68
2022/05/28 05:10:18;;;;;;;;;;;10.60;99.90;;;;;;5056174;28;20016;-71
2022/05/28 05:12:44;;;;;;;;;;;10.70;99.90;;;;;;5079748;28;19928;-69
2022/05/28 05:15:10;;;;;;;;;;;10.70;99.90;;;;;;5078003;28;19924;-70
2022/05/28 05:17:35;;;;;;;;;;;10.70;99.90;;;;;;5079987;28;20031;-70
2022/05/28 05:20:01;;;;;;;;;;;10.80;99.90;;;;;;5080943;28;20589;-71
2022/05/28 05:22:26;;;;;;;;;;;10.80;99.90;;;;;;5110414;27;20386;-69
2022/05/28 05:24:52;;;;;;;;;;;10.80;99.90;;;;;;5076369;28;20287;-69
2022/05/28 05:27:17;;;;;;;;;;;10.90;99.90;;;;;;5078703;28;19932;-69
2022/05/28 05:29:43;;;;;;;;;;;11.00;99.90;;;;;;5111962;27;20506;-71
2022/05/28 05:32:08;;;;;;;;;;;11.00;99.90;;;;;;5107730;27;20019;-69
2022/05/28 05:34:34;;;;;;;;;;;11.10;99.90;;;;;;5111142;27;19927;-70
2022/05/28 05:36:59;;;;;;;;;;;11.10;99.90;;;;;;5085032;28;20018;-72
2022/05/28 05:39:25;;;;;;;;;;;11.10;99.90;;;;;;5058838;28;19966;-69
2022/05/28 05:41:50;;;;;;;;;;;11.20;99.90;;;;;;5075860;28;19931;-69
2022/05/28 05:44:16;;;;;;;;;;;11.20;99.90;;;;;;5080335;28;19935;-73
2022/05/28 05:46:42;;;;;;;;;;;11.40;99.90;;;;;;5108771;27;20091;-70
2022/05/28 05:49:08;;;;;;;;;;;11.40;99.90;;;;;;5078786;28;19920;-71
2022/05/28 05:51:35;;;;;;;;;;;11.40;99.90;;;;;;5074416;28;19921;-71
2022/05/28 05:54:01;;;;;;;;;;;11.40;99.90;;;;;;5078014;28;19985;-72
2022/05/28 05:56:26;;;;;;;;;;;11.50;99.90;;;;;;5077534;28;19939;-73
2022/05/28 05:58:52;;;;;;;;;;;11.40;99.90;;;;;;5079631;28;19931;-69
2022/05/28 06:01:17;;;;;;;;;;;11.50;99.90;;;;;;5065350;28;19921;-70
2022/05/28 06:03:44;;;;;;;;;;;11.50;99.90;;;;;;5082537;28;19920;-72
2022/05/28 06:06:11;;;;;;;;;;;11.60;99.90;;;;;;5079891;28;19920;-69
2022/05/28 06:08:37;;;;;;;;;;;11.50;99.90;;;;;;5078190;28;20367;-69
2022/05/28 06:11:02;;;;;;;;;;;11.40;99.90;;;;;;5079205;28;20057;-73
2022/05/28 06:13:27;;;;;;;;;;;11.40;99.90;;;;;;5082815;28;19920;-71
2022/05/28 06:15:53;;;;;;;;;;;11.30;99.90;;;;;;5079969;28;19924;-69
2022/05/28 06:18:18;;;;;;;;;;;11.30;99.90;;;;;;5064940;28;21033;-71
2022/05/28 06:20:44;;;;;;;;;;;11.30;99.90;;;;;;5074216;28;19925;-71
2022/05/28 06:23:09;;;;;;;;;;;11.20;99.90;;;;;;5075750;28;19947;-68
2022/05/28 06:25:36;;;;;;;;;;;11.20;99.90;;;;;;5077076;28;19932;-73
2022/05/28 06:28:02;;;;;;;;;;;11.10;99.90;;;;;;5058695;28;20303;-71
2022/05/28 06:30:27;;;;;;;;;;;11.10;99.90;;;;;;5077074;28;19926;-72
2022/05/28 06:32:53;;;;;;;;;;;11.10;99.90;;;;;;5074804;28;19965;-69
2022/05/28 06:35:19;;;;;;;;;;;11.20;99.90;;;;;;5081864;28;20351;-72
2022/05/28 06:37:44;;;;;;;;;;;11.30;99.90;;;;;;5079705;28;19925;-69
2022/05/28 06:40:10;;;;;;;;;;;11.30;99.90;;;;;;5082776;28;19920;-71
2022/05/28 06:42:35;;;;;;;;;;;11.40;99.90;;;;;;5088697;28;19928;-71
2022/05/28 06:45:01;;;;;;;;;;;11.50;99.90;;;;;;5075628;28;19920;-70
2022/05/28 06:47:27;;;;;;;;;;;11.60;99.90;;;;;;5083615;28;19924;-70
2022/05/28 06:52:36;;;;;;;;;;;11.70;99.90;;;;;;5111206;27;20016;-69
2022/05/28 06:55:03;;;;;;;;;;;11.90;99.90;;;;;;5087403;28;20364;-73
2022/05/28 06:57:28;;;;;;;;;;;12.10;99.90;;;;;;5068292;28;19920;-69
2022/05/28 06:59:54;;;;;;;;;;;12.20;99.90;;;;;;5079024;28;19989;-68
2022/05/28 07:02:19;;;;;;;;;;;12.40;99.90;;;;;;5076159;28;19931;-70
2022/05/28 07:04:45;;;;;;;;;;;12.40;99.90;;;;;;5087995;28;19945;-70
2022/05/28 07:07:11;;;;;;;;;;;12.40;99.90;;;;;;5073899;28;19951;-66
2022/05/28 07:09:36;;;;;;;;;;;12.40;99.90;;;;;;5071627;28;19920;-71
2022/05/28 07:12:02;;;;;;;;;;;12.30;99.90;;;;;;5075112;28;20363;-71
2022/05/28 07:14:27;;;;;;;;;;;12.30;99.90;;;;;;5076441;28;20310;-69
2022/05/28 07:16:52;;;;;;;;;;;12.20;99.90;;;;;;5084614;28;20011;-75
2022/05/28 07:19:18;;;;;;;;;;;12.10;99.90;;;;;;5085024;28;20359;-68
2022/05/28 07:21:43;;;;;;;;;;;12.10;99.90;;;;;;5089404;28;20374;-72
2022/05/28 07:24:09;;;;;;;;;;;12.20;99.90;;;;;;5089851;28;19973;-71
2022/05/28 07:26:34;;;;;;;;;;;12.30;99.90;;;;;;5080502;28;19925;-70
2022/05/28 07:29:00;;;;;;;;;;;12.50;99.90;;;;;;5080443;28;19929;-71
2022/05/28 07:31:25;;;;;;;;;;;12.60;99.90;;;;;;5078909;28;20007;-69
2022/05/28 07:33:50;;;;;;;;;;;12.80;99.90;;;;;;5077071;28;19928;-68
2022/05/28 07:36:17;;;;;;;;;;;13.10;99.90;;;;;;5067997;28;19966;-70
2022/05/28 07:38:43;;;;;;;;;;;13.10;99.90;;;;;;5108446;27;19927;-74
2022/05/28 07:41:10;;;;;;;;;;;13.10;99.90;;;;;;5120371;27;19924;-69
2022/05/28 07:43:36;;;;;;;;;;;13.00;99.90;;;;;;5086062;28;21895;-69
2022/05/28 07:46:02;;;;;;;;;;;12.90;99.90;;;;;;5080203;28;19920;-74
2022/05/28 07:48:28;;;;;;;;;;;12.90;99.90;;;;;;5074781;28;19920;-71
2022/05/28 07:50:53;;;;;;;;;;;12.80;99.90;;;;;;5087446;28;19928;-76
2022/05/28 07:53:19;;;;;;;;;;;12.80;99.90;;;;;;5067529;28;20382;-72
2022/05/28 07:55:44;;;;;;;;;;;12.80;99.90;;;;;;5061509;28;19969;-73
2022/05/28 07:58:11;;;;;;;;;;;12.80;99.90;;;;;;5081230;28;19963;-72
2022/05/28 08:00:37;;;;;;;;;;;12.90;99.90;;;;;;5086352;28;20333;-69
2022/05/28 08:03:03;;;;;;;;;;;13.20;99.90;;;;;;5079641;28;20094;-74
2022/05/28 08:05:28;;;;;;;;;;;13.30;99.90;;;;;;5085375;28;20047;-72
2022/05/28 08:07:54;;;;;;;;;;;13.30;99.90;;;;;;5078410;28;19928;-71
2022/05/28 08:10:19;;;;;;;;;;;13.30;99.90;;;;;;5080879;28;19987;-73
2022/05/28 08:12:45;;;;;;;;;;;13.30;99.90;;;;;;5079770;28;19977;-71
2022/05/28 08:15:11;;;;;;;;;;;13.20;99.90;;;;;;5062057;28;19927;-68
2022/05/28 08:17:36;;;;;;;;;;;13.30;99.90;;;;;;5084558;28;19969;-71
2022/05/28 08:20:02;;;;;;;;;;;13.40;99.90;;;;;;5073619;28;19920;-68
2022/05/28 08:25:11;;;;;;;;;;;13.70;99.90;;;;;;5083174;28;19977;-73
2022/05/28 08:27:37;;;;;;;;;;;13.80;99.90;;;;;;5080471;28;19928;-68
2022/05/28 08:30:03;;;;;;;;;;;13.90;99.90;;;;;;5111053;27;19920;-68
2022/05/28 08:32:28;;;;;;;;;;;14.00;99.90;;;;;;5077157;28;20425;-67
2022/05/28 08:34:54;;;;;;;;;;;14.20;99.90;;;;;;5085784;28;20011;-67
2022/05/28 08:37:19;;;;;;;;;;;14.20;99.90;;;;;;5076250;28;19929;-67
2022/05/28 08:39:45;;;;;;;;;;;14.00;99.90;;;;;;5074045;28;19924;-66
2022/05/28 08:42:13;;;;;;;;;;;13.70;99.90;;;;;;5076588;28;19928;-75
2022/05/28 08:44:39;;;;;;;;;;;13.50;99.90;;;;;;5087731;28;19986;-75
2022/05/28 08:47:14;;;;;;;;;;;13.30;99.90;;;;;;5079516;28;19932;-74
2022/05/28 08:49:39;;;;;;;;;;;13.20;99.90;;;;;;5084897;28;20019;-75
2022/05/28 08:52:11;;;;;;;;;;;13.10;99.90;;;;;;5068735;28;20015;-74
2022/05/28 08:54:43;;;;;;;;;;;13.10;99.90;;;;;;5073690;28;20403;-71
2022/05/28 08:57:11;;;;;;;;;;;13.40;99.90;;;;;;5087921;28;19975;-76
2022/05/28 08:59:44;;;;;;;;;;;13.70;99.90;;;;;;5070985;28;19974;-69
2022/05/28 09:02:14;;;;;;;;;;;13.70;99.90;;;;;;5071663;28;19931;-71
2022/05/28 09:04:41;;;;;;;;;;;13.60;99.90;;;;;;5084933;28;19920;-69
2022/05/28 09:07:09;;;;;;;;;;;13.30;99.90;;;;;;5088986;28;19932;-70
2022/05/28 09:09:42;;;;;;;;;;;13.20;99.90;;;;;;5079044;28;19962;-68
2022/05/28 09:12:10;;;;;;;;;;;13.00;99.90;;;;;;5118955;27;19920;-68
2022/05/28 09:14:37;;;;;;;;;;;13.00;99.90;;;;;;5069898;28;20413;-70
2022/05/28 09:17:02;;;;;;;;;;;13.20;99.90;;;;;;5070345;28;19967;-67
2022/05/28 09:19:30;;;;;;;;;;;13.40;99.90;;;;;;5070138;28;20413;-68
2022/05/28 09:21:55;;;;;;;;;;;13.70;99.90;;;;;;5073494;28;19920;-71
2022/05/28 09:24:23;;;;;;;;;;;13.80;99.90;;;;;;5088044;28;19924;-69
2022/05/28 09:27:07;;;;;;;;;;;13.70;99.90;;;;;;5090605;28;19924;-74
2022/05/28 09:29:52;;;;;;;;;;;13.70;99.90;;;;;;5090630;28;19927;-70
2022/05/28 09:32:31;;;;;;;;;;;13.50;99.90;;;;;;5086339;28;19936;-71
2022/05/28 09:34:56;;;;;;;;;;;13.20;99.90;;;;;;5091030;28;19927;-70
2022/05/28 09:37:28;;;;;;;;;;;13.10;99.90;;;;;;5090951;28;20294;-67
2022/05/28 09:39:59;;;;;;;;;;;13.10;99.90;;;;;;5077139;28;19951;-70
2022/05/28 09:42:31;;;;;;;;;;;13.40;99.90;;;;;;5079986;28;19920;-71
2022/05/28 09:45:04;;;;;;;;;;;13.70;99.90;;;;;;5087104;28;19955;-71
2022/05/28 09:47:42;;;;;;;;;;;13.80;99.90;;;;;;5104229;28;19924;-71
2022/05/28 09:50:15;;;;;;;;;;;13.70;99.90;;;;;;5075476;28;19920;-74
2022/05/28 09:54:16;;;;;;;;;;;13.60;99.90;;;;;;5088872;28;19931;-69
2022/05/28 09:55:26;;;;;;;;;;;13.40;99.90;;;;;;5083063;28;19920;-70
2022/05/28 09:57:53;;;;;;;;;;;13.30;99.90;;;;;;5070090;28;19931;-71
2022/05/28 10:00:20;;;;;;;;;;;13.20;99.90;;;;;;5070261;28;19924;-67
2022/05/28 10:05:41;;;;;;;;;;;13.10;99.90;;;;;;5088487;28;19927;-75
2022/05/28 10:08:09;;;;;;;;;;;13.40;99.90;;;;;;5088340;28;19930;-69
2022/05/28 10:10:38;;;;;;;;;;;13.70;99.90;;;;;;5079695;28;20352;-69
2022/05/28 10:13:17;;;;;;;;;;;13.80;99.90;;;;;;5085268;28;19920;-70
2022/05/28 10:15:46;;;;;;;;;;;13.80;99.90;;;;;;5073018;28;19920;-71
2022/05/28 10:18:13;;;;;;;;;;;13.70;99.90;;;;;;5089168;28;19928;-74
2022/05/28 10:20:39;;;;;;;;;;;13.90;99.90;;;;;;5088878;28;20255;-70
2022/05/28 10:23:08;;;;;;;;;;;14.10;99.90;;;;;;5088413;28;20446;-72
2022/05/28 10:25:37;;;;;;;;;;;14.40;99.90;;;;;;5072067;28;20056;-72
2022/05/28 10:28:03;;;;;;;;;;;14.70;99.90;;;;;;5124449;28;20441;-72
2022/05/28 10:30:40;;;;;;;;;;;14.80;99.90;;;;;;5053092;28;20003;-71
2022/05/28 10:33:12;;;;;;;;;;;14.70;99.90;;;;;;5079178;28;19920;-72
2022/05/28 10:35:38;;;;;;;;;;;14.50;99.90;;;;;;5085232;28;19920;-73
2022/05/28 10:38:23;;;;;;;;;;;14.30;99.90;;;;;;5089475;28;19920;-80
2022/05/28 10:40:53;;;;;;;;;;;14.30;99.90;;;;;;5089104;28;19920;-73
2022/05/28 10:43:38;;;;;;;;;;;14.20;99.90;;;;;;5086596;28;19916;-73
2022/05/28 10:46:04;;;;;;;;;;;14.20;99.90;;;;;;5069736;28;20042;-71
2022/05/28 10:48:47;;;;;;;;;;;14.20;99.90;;;;;;5069580;28;20015;-75
2022/05/28 10:51:37;;;;;;;;;;;14.10;99.90;;;;;;5071282;28;20398;-69
2022/05/28 10:54:21;;;;;;;;;;;13.90;99.90;;;;;;5104139;28;20359;-69
2022/05/28 10:56:53;;;;;;;;;;;13.90;99.90;;;;;;5069576;28;19924;-73
2022/05/28 10:59:28;;;;;;;;;;;14.10;99.90;;;;;;5068359;28;19924;-70
2022/05/28 11:02:13;;;;;;;;;;;14.40;99.90;;;;;;5086851;28;20015;-76
2022/05/28 11:04:49;;;;;;;;;;;14.50;99.90;;;;;;5087885;28;19920;-77
2022/05/28 11:07:20;;;;;;;;;;;14.80;99.90;;;;;;5097458;28;20378;-72
2022/05/28 11:10:05;;;;;;;;;;;14.80;99.90;;;;;;5072940;28;20011;-74
2022/05/28 11:12:41;;;;;;;;;;;14.50;99.90;;;;;;5089726;28;19924;-71
2022/05/28 11:15:12;;;;;;;;;;;14.10;99.90;;;;;;5073254;28;19940;-70
2022/05/28 11:17:57;;;;;;;;;;;13.80;99.90;;;;;;5106633;28;20367;-72
2022/05/28 11:20:22;;;;;;;;;;;13.70;99.90;;;;;;5117367;27;19924;-71
2022/05/28 11:22:54;;;;;;;;;;;13.60;99.90;;;;;;5090828;28;20272;-69
2022/05/28 11:25:34;;;;;;;;;;;13.60;99.90;;;;;;5094904;28;19920;-68
2022/05/28 11:28:20;;;;;;;;;;;13.70;99.90;;;;;;5127458;27;20386;-74
2022/05/28 11:30:47;;;;;;;;;;;13.90;99.90;;;;;;5091803;28;19924;-69
2022/05/28 11:33:16;;;;;;;;;;;14.00;99.90;;;;;;5085002;28;19935;-68
2022/05/28 11:35:47;;;;;;;;;;;13.90;99.90;;;;;;5088940;28;19972;-71
2022/05/28 11:38:24;;;;;;;;;;;14.00;99.90;;;;;;5072276;28;19920;-70
2022/05/28 11:40:53;;;;;;;;;;;14.20;99.90;;;;;;5110912;27;19927;-70
2022/05/28 11:43:26;;;;;;;;;;;14.40;99.90;;;;;;5091287;28;21278;-74
2022/05/28 11:46:04;;;;;;;;;;;14.40;99.90;;;;;;5078551;28;19920;-71
2022/05/28 11:51:27;;;;;;;;;;;14.50;99.90;;;;;;5117518;27;19961;-75
2022/05/28 11:51:29;;;;;;;;;;;14.60;99.90;;;;;;5092190;28;20008;-70
2022/05/28 11:53:58;;;;;;;;;;;14.50;99.90;;;;;;5091972;28;20349;-73
2022/05/28 11:56:28;;;;;;;;;;;14.30;99.90;;;;;;5091843;28;19924;-76
2022/05/28 11:59:17;;;;;;;;;;;14.00;99.90;;;;;;5091721;28;19928;-76
2022/05/28 12:01:48;;;;;;;;;;;14.00;99.90;;;;;;5083190;28;19920;-74
2022/05/28 12:04:14;;;;;;;;;;;13.80;99.90;;;;;;5089293;28;20349;-74
2022/05/28 12:06:41;;;;;;;;;;;13.70;99.90;;;;;;5091820;28;20238;-71
2022/05/28 12:09:20;;;;;;;;;;;13.70;99.90;;;;;;5082796;28;20007;-74
2022/05/28 12:11:47;;;;;;;;;;;13.80;99.90;;;;;;5105469;28;19927;-72
2022/05/28 12:14:19;;;;;;;;;;;14.20;99.90;;;;;;5071771;28;19916;-72
2022/05/28 12:16:55;;;;;;;;;;;14.60;99.90;;;;;;5105251;28;20009;-72
2022/05/28 12:19:22;;;;;;;;;;;14.90;99.90;;;;;;5105031;28;19920;-75
2022/05/28 12:21:48;;;;;;;;;;;14.90;99.90;;;;;;5075767;28;19978;-76
2022/05/28 12:24:19;;;;;;;;;;;14.80;99.90;;;;;;5078867;28;19917;-77
2022/05/28 12:27:00;;;;;;;;;;;14.70;99.90;;;;;;5091342;28;20370;-71
2022/05/28 12:29:31;;;;;;;;;;;14.50;99.90;;;;;;5091067;28;19924;-74
2022/05/28 12:32:09;;;;;;;;;;;14.30;99.90;;;;;;5089937;28;19946;-74
2022/05/28 12:34:37;;;;;;;;;;;14.10;99.90;;;;;;5086617;28;19932;-76
2022/05/28 12:37:03;;;;;;;;;;;14.20;99.90;;;;;;5066648;28;19920;-73
2022/05/28 12:39:36;;;;;;;;;;;14.30;99.90;;;;;;5084364;28;19920;-75
2022/05/28 12:42:03;;;;;;;;;;;14.20;99.90;;;;;;5091377;28;19924;-68
2022/05/28 12:44:28;;;;;;;;;;;14.20;99.90;;;;;;5090945;28;19920;-76
2022/05/28 12:46:59;;;;;;;;;;;14.30;99.90;;;;;;5090518;28;19931;-75
2022/05/28 12:49:33;;;;;;;;;;;14.40;99.90;;;;;;5091124;28;19985;-72
2022/05/28 12:52:01;;;;;;;;;;;14.50;99.90;;;;;;5109805;27;20283;-71
2022/05/28 12:54:28;;;;;;;;;;;14.50;99.90;;;;;;5076500;28;20306;-70
2022/05/28 12:57:05;;;;;;;;;;;14.40;99.90;;;;;;5084632;28;20006;-69
2022/05/28 12:59:34;;;;;;;;;;;14.10;99.90;;;;;;5108052;27;20007;-70
2022/05/28 13:02:02;;;;;;;;;;;13.90;99.90;;;;;;5092583;28;19993;-71
2022/05/28 13:04:34;;;;;;;;;;;13.80;99.90;;;;;;5090764;28;19924;-72
2022/05/28 13:07:01;;;;;;;;;;;13.70;99.90;;;;;;5090492;28;19924;-69
2022/05/28 13:09:28;;;;;;;;;;;13.70;99.90;;;;;;5089308;28;19926;-71
2022/05/28 13:11:57;;;;;;;;;;;13.80;99.90;;;;;;5091002;28;19931;-71
2022/05/28 13:14:31;;;;;;;;;;;13.80;99.90;;;;;;5086783;28;20464;-67
2022/05/28 13:17:00;;;;;;;;;;;14.00;99.90;;;;;;5089790;28;19927;-72
2022/05/28 13:19:29;;;;;;;;;;;14.10;99.90;;;;;;5084451;28;19931;-72
2022/05/28 13:22:02;;;;;;;;;;;14.10;99.90;;;;;;5083569;28;19923;-68
2022/05/28 13:24:34;;;;;;;;;;;14.10;99.90;;;;;;5080694;28;19924;-70
2022/05/28 13:27:13;;;;;;;;;;;14.40;99.90;;;;;;5085857;28;20391;-70
2022/05/28 13:29:45;;;;;;;;;;;14.70;99.90;;;;;;5083744;28;19973;-74
2022/05/28 13:32:14;;;;;;;;;;;15.00;99.90;;;;;;5086430;28;19947;-73
2022/05/28 13:34:40;;;;;;;;;;;15.00;99.90;;;;;;5080155;28;19919;-72
2022/05/28 13:37:14;;;;;;;;;;;14.70;99.90;;;;;;5085627;28;19973;-69
2022/05/28 13:39:42;;;;;;;;;;;14.70;99.90;;;;;;5089333;28;19927;-70
2022/05/28 13:42:11;;;;;;;;;;;14.60;99.90;;;;;;5091845;28;19965;-70
2022/05/28 13:44:37;;;;;;;;;;;14.60;99.90;;;;;;5072284;28;19920;-69
2022/05/28 13:47:04;;;;;;;;;;;14.60;99.90;;;;;;5088727;28;19932;-69
2022/05/28 13:49:31;;;;;;;;;;;14.60;99.90;;;;;;5100487;28;19934;-70
2022/05/28 13:51:57;;;;;;;;;;;14.80;99.90;;;;;;5088670;28;19924;-73
2022/05/28 13:54:23;;;;;;;;;;;14.70;99.90;;;;;;5086436;28;19974;-67
2022/05/28 13:56:55;;;;;;;;;;;14.60;99.90;;;;;;5083264;28;19955;-72
2022/05/28 13:59:47;;;;;;;;;;;14.60;99.90;;;;;;5089340;28;19928;-72
2022/05/28 14:02:15;;;;;;;;;;;14.80;99.90;;;;;;5084529;28;19924;-71
2022/05/28 14:04:41;;;;;;;;;;;15.00;99.90;;;;;;5083086;28;20343;-70
2022/05/28 14:07:06;;;;;;;;;;;14.90;99.90;;;;;;5085381;28;19955;-69
2022/05/28 14:09:37;;;;;;;;;;;14.60;99.90;;;;;;5073630;28;20358;-70
2022/05/28 14:12:05;;;;;;;;;;;14.40;99.90;;;;;;5112432;27;19920;-67
2022/05/28 14:14:35;;;;;;;;;;;14.30;99.90;;;;;;5082591;28;20425;-70
2022/05/28 14:17:01;;;;;;;;;;;14.20;99.90;;;;;;5079216;28;19928;-72
2022/05/28 14:19:37;;;;;;;;;;;14.50;99.90;;;;;;5109998;27;20015;-70
2022/05/28 14:22:03;;;;;;;;;;;14.70;99.90;;;;;;5116724;27;19924;-69
2022/05/28 14:24:37;;;;;;;;;;;15.00;99.90;;;;;;5083708;28;19920;-70
2022/05/28 14:27:09;;;;;;;;;;;15.20;98.80;;;;;;5074882;28;20616;-71
2022/05/28 14:29:36;;;;;;;;;;;15.40;99.00;;;;;;5087473;28;19920;-69
2022/05/28 14:32:05;;;;;;;;;;;15.30;99.90;;;;;;5113227;28;19963;-71
2022/05/28 14:34:31;;;;;;;;;;;15.00;99.90;;;;;;5074544;28;20037;-70
2022/05/28 14:36:58;;;;;;;;;;;14.70;99.90;;;;;;5080320;28;20290;-71